Date,TemperatureHighF,TemperatureAvgF,TemperatureLowF,DewpointHighF,DewpointAvgF,DewpointLowF,HumidityHigh,HumidityAvg,HumidityLow,PressureMaxIn,PressureMinIn,WindSpeedMaxMPH,WindSpeedAvgMPH,GustSpeedMaxMPH,PrecipitationSumIn
2013-1-1,79.1,71.2,65.6,60.0,34.2,-37.1,52,29,1,30.19,30.04,14,1,14,0.00
2013-1-2,82.3,71.8,64.5,62.8,5.2,-32.5,52,4,2,30.09,29.98,8,0,8,0.00
2013-1-3,78.1,73.6,68.5,26.7,-0.1,-31.6,16,1,1,30.12,30.01,7,0,11,0.00
2013-1-4,81.5,73.9,66.5,0.0,0.0,-29.8,0,0,100,30.21,30.09,9,0,9,0.00
2013-1-5,75.3,70.0,67.9,0.0,0.0,0.0,0,0,100,30.24,30.14,10,0,10,0.05
2013-1-6,79.7,69.9,67.7,0.0,0.0,0.0,0,0,100,30.18,30.05,9,0,12,0.18
2013-1-7,76.1,70.7,68.7,0.0,0.0,0.0,0,0,100,30.16,30.06,10,1,10,0.21
2013-1-8,77.8,76.3,76.1,0.0,0.0,0.0,0,0,100,30.19,30.06,18,3,18,0.15
2013-1-9,81.3,78.9,75.3,0.0,0.0,0.0,0,0,100,30.27,30.15,20,5,20,0.00
2013-1-10,79.5,75.3,72.3,60.9,13.7,-33.0,53,11,1,30.29,30.17,23,5,23,0.00
2013-1-11,79.5,75.8,74.0,42.8,6.1,-31.8,30,4,1,30.24,30.14,19,4,19,0.01
2013-1-12,78.0,74.8,70.4,46.6,11.4,-33.9,36,9,1,30.17,30.08,16,3,16,0.00
2013-1-13,79.5,73.4,69.5,60.3,21.0,-34.1,52,18,1,30.12,30.06,20,3,20,0.00
2013-1-14,80.4,72.1,67.2,61.7,29.3,-34.3,54,26,1,30.16,30.10,17,2,17,0.00
2013-1-15,77.2,73.8,70.3,40.5,5.7,-34.7,29,4,1,30.13,30.03,15,2,15,0.00
2013-1-16,79.2,74.1,67.0,0.0,0.0,0.0,0,0,100,30.10,30.00,14,1,14,0.43
2013-1-17,81.7,71.9,61.1,0.0,0.0,0.0,0,0,100,30.09,29.97,24,1,24,0.07
2013-1-18,68.3,61.0,52.0,34.9,6.6,-37.8,30,6,2,30.23,30.09,16,2,16,0.00
2013-1-19,71.2,68.3,64.5,25.2,1.7,-36.6,20,2,4,30.21,30.08,8,0,8,0.52
2013-1-20,78.7,70.4,67.9,0.0,0.0,0.0,0,0,100,30.14,30.00,8,0,8,0.01
2013-1-21,79.3,69.8,66.6,0.0,0.0,0.0,0,0,100,30.06,29.95,12,0,12,0.02
2013-1-22,74.6,67.1,63.0,46.1,12.9,-37.2,44,11,1,30.20,30.00,19,2,19,0.00
2013-1-23,74.8,68.1,60.2,55.5,36.5,-39.5,52,35,3,30.28,30.18,17,2,17,0.00
2013-1-24,77.1,66.0,57.5,55.9,25.1,-41.3,54,24,1,30.28,30.18,12,1,12,0.00
2013-1-25,77.3,66.0,56.5,58.0,22.8,-38.7,53,21,2,30.28,30.16,11,1,11,0.00
2013-1-26,78.7,68.0,59.2,57.3,16.0,-38.4,48,13,2,30.25,30.15,13,1,13,0.00
2013-1-27,76.5,70.4,63.4,48.0,7.4,-35.7,38,6,1,30.27,30.18,16,3,16,0.00
2013-1-28,78.9,73.0,69.1,54.5,12.6,-34.3,43,9,1,30.31,30.21,19,5,19,0.00
2013-1-29,81.3,76.7,73.6,0.0,0.0,0.0,0,0,100,30.22,30.11,18,2,18,0.00
2013-1-30,77.8,75.2,73.1,0.0,0.0,0.0,0,0,100,30.11,29.96,15,1,18,0.00
2013-1-31,73.1,66.9,59.0,38.4,2.8,-41.6,44,3,13,30.17,29.94,19,1,19,0.00
2013-2-1,74.2,62.3,49.6,54.2,30.8,-47.3,52,35,1,30.26,30.15,18,3,18,0.00
2013-2-2,75.0,63.5,53.0,54.7,30.6,-45.3,52,32,1,30.25,30.10,12,1,12,0.00
2013-2-3,76.0,64.7,52.4,52.9,26.7,-39.9,52,26,4,30.17,30.06,12,1,12,0.00
2013-2-4,75.5,61.1,47.2,54.6,22.7,-48.0,51,24,1,30.14,30.02,12,0,12,0.00
2013-2-5,77.8,66.0,55.6,50.4,4.0,-35.3,39,3,1,30.08,29.99,11,0,11,0.00
2013-2-6,79.0,70.8,61.9,0.0,0.0,0.0,0,0,100,30.10,30.01,12,1,12,0.00
2013-2-7,79.6,74.3,71.6,42.6,0.7,-31.9,28,1,1,30.07,29.94,13,1,13,0.00
2013-2-8,82.9,75.0,69.2,0.0,0.0,0.0,0,0,100,30.02,29.91,15,1,15,0.00
2013-2-9,80.5,71.6,62.8,0.0,0.0,0.0,0,0,100,30.16,30.00,16,3,16,0.00
2013-2-10,76.2,72.4,67.4,0.0,0.0,0.0,0,0,100,30.24,30.13,21,5,21,0.01
2013-2-11,77.5,74.1,71.6,0.0,0.0,0.0,0,0,100,30.21,30.10,18,1,18,0.00
2013-2-12,78.9,73.5,67.9,0.0,0.0,0.0,0,0,100,30.11,29.97,6,0,8,0.00
2013-2-13,86.5,77.5,69.7,0.0,0.0,0.0,0,0,100,30.00,29.89,12,0,12,0.00
2013-2-14,85.2,74.6,63.9,0.0,0.0,0.0,0,0,100,30.01,29.84,29,1,29,0.37
2013-2-15,73.0,67.3,63.7,0.0,0.0,0.0,0,0,100,30.01,29.93,10,0,10,0.71
2013-2-16,72.9,55.3,0.0,49.7,5.4,-44.5,49,6,3,30.08,29.87,22,4,22,0.02
2013-2-17,60.6,52.4,45.1,32.4,22.1,-48.1,51,31,5,30.30,30.07,21,4,21,0.00
2013-2-18,69.8,59.7,47.0,50.9,36.3,-26.1,52,43,2,30.31,30.19,16,3,17,0.00
2013-2-19,76.7,69.6,61.4,41.7,5.4,-39.2,29,5,1,30.19,30.08,15,1,15,0.00
2013-2-20,80.0,72.1,65.9,47.7,1.8,-32.9,35,1,2,30.10,30.00,14,2,14,0.00
2013-2-21,81.5,75.7,69.7,0.0,0.0,0.0,0,0,100,30.08,29.98,15,2,15,0.00
2013-2-22,85.5,78.2,73.9,0.0,0.0,0.0,0,0,100,30.09,30.00,19,3,19,0.00
2013-2-23,86.8,79.4,73.7,0.0,0.0,0.0,0,0,100,30.04,29.91,14,0,14,0.00
2013-2-24,87.0,76.1,72.4,0.0,0.0,0.0,0,0,100,29.99,29.89,11,0,11,0.00
2013-2-25,88.8,79.1,70.6,0.0,0.0,0.0,0,0,100,29.91,29.81,15,0,15,0.00
2013-2-26,87.5,81.5,76.7,0.0,0.0,0.0,0,0,100,29.90,29.79,14,0,14,0.00
2013-2-27,80.8,72.6,66.0,0.0,0.0,0.0,0,0,100,29.96,29.85,10,0,10,0.28
2013-2-28,71.7,64.9,59.7,48.2,18.3,-40.1,49,19,5,30.00,29.89,13,1,13,0.01
2013-3-1,67.9,60.4,53.3,32.2,4.2,-42.8,36,8,1,29.99,29.90,11,1,11,0.01
2013-3-2,67.5,56.6,49.7,45.3,26.4,-46.2,53,35,1,30.04,29.95,23,4,23,0.00
2013-3-3,63.7,54.3,45.7,42.8,18.1,-49.1,51,24,1,30.14,29.96,20,4,20,0.00
2013-3-4,67.1,53.3,39.5,45.0,22.1,-52.2,54,26,1,30.21,30.12,14,2,14,0.00
2013-3-5,73.0,62.7,47.6,44.8,10.5,-48.5,38,9,1,30.18,30.08,16,0,16,0.00
2013-3-6,80.3,67.1,52.9,54.6,15.4,-20.8,54,15,3,30.10,29.94,22,4,22,0.00
2013-3-7,72.0,58.3,42.5,48.5,24.0,-51.2,55,28,4,30.18,30.07,13,2,13,0.00
2013-3-8,77.5,65.2,56.2,53.8,23.0,-42.0,54,21,1,30.19,30.09,16,1,16,0.00
2013-3-9,74.8,64.2,56.8,51.4,20.6,-23.3,45,19,2,30.18,30.09,14,2,14,0.00
2013-3-10,76.5,67.7,61.0,55.6,35.1,-38.2,49,33,2,30.16,30.06,17,4,17,0.00
2013-3-11,74.3,70.3,66.6,47.7,10.0,-35.3,41,9,2,30.10,29.95,19,2,19,0.00
2013-3-12,86.3,79.5,73.1,0.0,0.0,0.0,0,0,100,30.00,29.91,11,1,13,0.00
2013-3-13,78.8,69.3,56.6,56.0,22.9,-36.2,56,21,2,30.11,29.97,16,2,16,0.00
2013-3-14,74.9,63.3,52.1,49.9,21.3,-45.6,54,21,1,30.20,30.08,18,4,18,0.00
2013-3-15,74.3,63.6,50.7,53.6,26.8,-46.7,56,27,1,30.25,30.14,14,2,14,0.00
2013-3-16,76.3,66.8,56.4,55.7,24.9,-38.2,50,23,2,30.19,30.09,14,1,16,0.00
2013-3-17,76.8,67.6,59.0,46.3,5.4,-41.6,37,5,1,30.14,30.02,15,0,15,0.00
2013-3-18,85.6,77.4,69.5,0.0,0.0,0.0,0,0,100,30.07,29.96,18,1,18,0.09
2013-3-19,85.0,73.7,69.5,0.0,0.0,0.0,0,0,100,30.01,29.82,10,1,10,0.06
2013-3-20,87.5,75.1,64.9,15.9,0.1,-35.1,12,0,2,29.97,29.80,20,1,20,0.01
2013-3-21,79.3,69.8,57.3,51.5,23.7,-39.1,53,20,2,29.94,29.83,12,2,12,0.00
2013-3-22,82.0,70.7,59.7,20.3,-0.4,-34.7,15,0,1,30.00,29.89,16,1,16,0.00
2013-3-23,92.9,81.5,71.6,0.0,0.0,0.0,0,0,100,29.98,29.80,14,0,14,0.02
2013-3-24,91.5,82.0,74.4,43.6,2.9,-26.9,25,2,2,29.88,29.69,26,2,26,0.00
2013-3-25,83.3,76.9,65.6,56.1,22.1,-33.6,44,18,13,29.99,29.74,15,1,15,0.00
2013-3-26,70.2,62.0,52.4,42.3,37.5,31.0,54,41,24,30.21,29.98,20,5,20,0.00
2013-3-27,72.0,57.3,41.1,47.5,29.8,-52.5,55,37,1,30.25,30.16,15,2,15,0.00
2013-3-28,75.0,61.0,47.3,50.7,27.8,-47.1,51,27,4,30.26,30.16,14,1,14,0.00
2013-3-29,75.3,65.9,52.7,55.0,46.1,18.8,55,49,26,30.28,30.20,15,2,15,0.00
2013-3-30,77.1,68.3,56.4,55.0,36.5,-43.2,53,34,1,30.26,30.16,15,2,15,0.00
2013-3-31,81.0,73.7,61.5,45.3,7.0,-31.2,36,6,1,30.19,30.05,16,1,16,0.00
2013-4-1,88.8,78.6,73.4,64.5,10.8,-32.5,47,8,2,30.05,29.95,19,0,19,0.00
2013-4-2,85.4,76.7,67.0,40.6,0.5,-30.9,26,0,4,30.08,29.98,13,2,14,0.00
2013-4-3,88.8,79.4,74.7,0.0,0.0,0.0,0,0,100,30.06,30.01,13,1,15,0.00
2013-4-4,73.0,71.3,69.4,0.0,0.0,0.0,0,0,100,29.99,29.90,0,0,0,1.02
2013-4-5,76.0,68.8,65.9,0.0,0.0,0.0,0,0,100,29.98,29.82,11,1,20,1.26
2013-4-6,78.3,70.5,61.2,2.1,-0.5,-34.4,6,0,1,30.08,29.92,16,2,16,0.00
2013-4-7,82.0,77.8,72.8,0.0,0.0,0.0,0,0,100,30.13,30.01,18,3,18,0.02
2013-4-8,82.2,74.2,65.9,56.2,13.0,-35.1,43,10,1,30.13,30.03,14,2,14,0.00
2013-4-9,86.2,81.7,78.7,0.0,0.0,0.0,0,0,100,30.14,30.04,19,3,20,0.00
2013-4-10,92.0,84.1,79.1,0.0,0.0,0.0,0,0,100,30.10,29.99,19,3,19,0.00
2013-4-11,91.5,83.4,75.5,0.0,0.0,0.0,0,0,100,30.01,29.89,19,2,19,0.05
2013-4-12,96.3,85.6,79.0,0.0,0.0,0.0,0,0,100,29.95,29.85,14,0,16,0.02
2013-4-13,93.0,83.5,78.6,0.0,0.0,0.0,0,0,100,29.97,29.87,10,0,10,0.02
2013-4-14,94.7,84.3,75.5,0.0,0.0,0.0,0,0,100,29.96,29.89,14,0,14,0.20
2013-8-8,89.6,88.2,85.4,60.9,60.0,57.7,40,39,37,30.01,29.96,0,0,0,0.22
2013-8-9,89.6,86.1,80.6,73.5,62.1,56.6,77,47,36,30.05,29.94,14,1,14,0.11
2013-8-10,91.7,85.4,81.4,77.6,75.4,73.3,82,73,59,30.11,30.02,16,4,16,0.00
2013-8-11,91.1,85.6,82.1,77.6,75.8,74.2,81,73,62,30.12,30.05,16,5,16,0.00
2013-8-12,92.0,84.9,79.6,76.3,74.4,71.8,80,71,53,30.10,30.00,14,4,14,0.00
2013-8-13,92.2,85.4,79.9,77.7,75.0,71.0,87,72,53,30.03,29.95,12,2,13,0.00
2013-8-14,92.6,85.4,78.8,76.8,74.8,71.3,88,71,54,30.02,29.92,18,2,18,0.00
2013-8-15,86.8,81.4,76.5,78.2,76.3,72.8,94,85,72,30.05,29.95,12,1,12,0.11
2013-8-16,92.2,85.0,79.1,79.4,77.2,72.7,92,78,58,30.05,29.97,13,2,13,0.00
2013-8-17,91.3,85.8,80.5,80.6,77.4,75.3,92,76,64,30.07,29.99,18,4,18,0.11
2013-8-18,92.0,85.3,79.8,78.9,76.8,74.1,87,76,64,30.07,29.98,21,5,21,0.19
2013-8-19,92.0,84.9,78.2,79.0,76.6,73.6,92,77,60,30.07,29.95,18,4,18,0.01
2013-8-20,91.5,85.3,80.8,77.0,75.6,73.0,84,73,61,30.05,29.98,17,5,17,0.00
2013-8-21,91.0,84.8,82.0,79.3,77.0,74.6,88,78,65,30.06,29.99,20,5,20,0.05
2013-8-22,90.3,84.6,77.1,79.0,76.9,73.3,94,78,66,30.06,29.94,18,4,18,0.09
2013-8-23,92.0,85.0,80.7,78.5,75.9,73.1,86,75,58,30.01,29.93,16,3,16,0.00
2013-8-24,93.0,85.1,77.8,78.2,75.5,70.8,88,74,58,30.10,29.96,13,3,13,0.02
2013-8-25,87.2,81.6,77.8,77.0,75.1,73.0,94,81,65,30.14,30.02,12,3,12,0.03
2013-8-26,90.5,82.7,79.0,76.2,73.8,70.9,85,75,61,30.11,30.00,15,2,15,0.00
2013-8-27,87.0,80.4,75.2,75.3,73.0,68.4,92,79,61,30.04,29.96,12,2,12,0.01
2013-8-28,89.0,81.4,74.1,77.8,74.2,70.8,96,79,63,30.04,29.94,12,2,12,0.66
2013-8-29,91.0,83.0,75.0,77.5,75.1,72.1,94,78,59,30.01,29.92,12,2,14,0.00
2013-8-30,92.5,83.8,76.4,76.3,74.1,67.8,94,74,55,30.00,29.89,13,1,13,0.00
2013-8-31,91.2,79.6,74.2,79.1,74.6,70.9,96,85,61,29.98,29.91,12,1,12,0.25
2013-9-1,89.0,79.6,74.0,78.8,75.9,70.6,98,89,69,30.00,29.92,10,1,10,0.10
2013-9-2,90.8,79.0,73.8,79.5,75.3,71.2,98,89,60,30.04,29.93,15,1,15,0.48
2013-9-3,89.3,80.7,73.1,78.8,75.5,72.0,97,85,65,30.02,29.92,11,2,11,0.01
2013-9-4,88.5,83.6,78.9,78.8,76.8,74.4,90,80,67,30.05,29.93,13,2,13,0.00
2013-9-5,89.8,83.7,77.2,79.3,76.9,74.1,95,80,66,30.06,29.98,8,3,13,0.13
2013-9-6,91.5,85.4,80.9,78.5,76.4,72.1,87,75,55,30.03,29.91,11,3,13,0.00
2013-9-7,88.4,81.2,75.8,77.2,74.2,70.3,88,80,57,29.98,29.89,10,2,13,0.00
2013-9-8,91.8,80.5,74.0,77.1,74.0,70.8,95,82,55,29.94,29.84,16,2,16,0.00
2013-9-9,90.2,82.6,75.1,76.8,74.6,72.4,93,78,59,29.98,29.88,11,3,16,0.00
2013-9-10,89.2,82.6,76.3,77.8,75.2,72.8,91,79,64,30.03,29.94,23,4,23,0.36
2013-9-11,88.8,82.2,78.5,77.1,75.0,72.3,88,79,66,30.04,29.95,18,3,18,0.01
2013-9-12,85.3,80.1,75.8,78.4,75.6,72.4,97,86,72,30.01,29.88,6,1,8,0.17
2013-9-13,92.0,83.0,74.6,77.4,74.2,70.1,96,76,58,29.89,29.80,13,2,13,0.00
2013-9-14,92.1,83.9,76.2,76.8,74.8,69.6,94,75,51,29.96,29.82,9,2,14,0.00
2013-9-15,84.5,80.8,77.9,79.1,76.5,72.7,94,87,73,30.04,29.91,16,2,16,0.22
2013-9-16,85.0,81.4,77.9,78.3,75.8,72.2,92,84,71,30.03,29.95,29,4,29,0.14
2013-9-17,86.2,79.9,74.6,77.3,75.4,71.5,93,86,72,30.01,29.90,14,3,14,0.23
2013-9-18,87.5,79.7,73.0,77.9,74.8,71.3,98,86,70,30.01,29.90,13,2,13,1.43
2013-9-19,90.2,80.5,73.9,77.7,74.6,71.9,97,83,61,29.99,29.91,14,3,14,0.22
2013-9-20,88.1,81.5,74.7,74.5,71.2,67.4,94,72,54,29.99,29.88,15,3,15,0.36
2013-9-21,88.7,80.6,73.7,76.1,74.0,72.4,96,81,62,29.91,29.76,13,2,13,0.01
2013-9-22,91.0,83.1,76.1,78.3,76.2,73.2,96,81,58,29.86,29.75,10,1,10,0.01
2013-9-23,89.0,80.6,75.7,78.7,76.6,73.1,96,88,65,29.97,29.85,16,0,16,0.63
2013-9-24,92.3,82.5,76.2,81.1,75.8,70.6,97,81,58,29.96,29.86,16,2,16,0.02
2013-9-25,89.8,80.3,75.1,79.3,74.9,70.5,94,84,66,29.91,29.80,16,2,16,0.19
2013-9-26,90.8,81.5,76.4,80.5,76.5,74.8,95,86,64,29.86,29.79,17,3,26,0.09
2013-9-27,91.3,81.4,74.6,76.6,73.4,67.0,96,78,49,29.91,29.81,12,3,12,0.01
2013-9-28,88.8,79.6,73.0,76.4,73.1,71.0,96,82,58,29.96,29.86,18,3,18,1.50
2013-9-29,87.7,78.5,72.8,75.1,71.6,67.0,97,81,53,29.96,29.87,12,2,13,0.05
2013-9-30,88.8,80.2,73.7,73.6,70.9,69.1,90,74,56,29.96,29.89,12,2,12,0.00
2013-10-1,88.3,83.0,78.2,74.6,72.7,70.3,81,71,63,30.01,29.94,6,4,16,0.00
2013-10-2,82.4,80.9,76.8,76.7,74.2,72.7,93,80,74,30.03,29.95,6,4,15,0.09
2013-10-3,86.8,81.0,76.2,77.1,73.3,71.9,94,78,71,30.04,29.94,7,2,16,0.03
2013-10-4,88.5,81.9,77.3,73.8,71.7,68.8,85,72,56,30.05,29.97,13,2,13,0.00
2013-10-5,89.8,81.4,72.8,74.1,71.5,64.9,91,73,48,30.02,29.92,14,3,14,0.00
2013-10-6,90.6,82.2,75.1,76.3,72.2,67.6,96,73,52,29.96,29.86,11,1,11,0.07
2013-10-7,92.2,80.1,74.3,75.0,72.9,70.3,96,80,54,29.89,29.80,18,1,18,0.57
2013-10-8,90.9,81.4,75.1,78.3,74.9,70.8,97,82,57,29.93,29.84,11,2,11,0.10
2013-10-9,87.8,79.0,72.6,75.9,72.8,69.7,93,82,65,29.98,29.89,10,3,13,0.00
2013-10-10,88.5,80.2,72.6,74.1,71.7,68.8,94,76,58,30.00,29.92,14,3,14,0.00
2013-10-11,87.0,79.0,70.2,71.9,68.6,65.7,93,72,54,30.00,29.93,14,3,14,0.00
2013-10-12,87.0,78.4,69.0,70.2,67.7,65.1,92,71,53,30.02,29.93,12,2,12,0.00
2013-10-13,86.0,79.1,72.5,72.4,67.2,63.0,90,68,47,30.04,29.95,15,2,15,0.00
2013-10-14,86.6,78.8,70.6,70.5,68.2,66.2,91,71,54,30.01,29.89,14,2,14,0.00
2013-10-15,87.3,79.0,71.3,72.6,69.9,68.2,94,75,56,29.94,29.86,14,2,14,0.00
2013-10-16,87.1,79.0,73.0,73.4,69.7,66.5,89,74,53,29.94,29.87,13,2,13,0.00
2013-10-17,86.8,79.8,71.6,73.1,71.1,68.9,93,76,57,29.96,29.88,8,2,13,0.00
2013-10-18,88.7,80.5,72.2,74.4,71.7,69.4,93,75,59,29.98,29.89,15,2,15,0.00
2013-10-19,90.2,82.8,76.4,75.2,73.2,71.2,86,73,58,29.95,29.87,8,2,12,0.00
2013-10-20,90.0,81.1,76.5,77.6,75.2,73.4,95,83,61,29.96,29.86,12,1,12,0.32
2013-10-21,89.8,82.2,77.1,78.5,75.8,72.8,96,81,61,30.00,29.90,8,1,12,0.06
2013-10-22,90.6,82.3,75.1,78.7,75.7,73.4,96,81,59,29.95,29.83,9,1,9,0.00
2013-10-23,87.8,81.2,77.1,78.1,73.6,68.5,94,78,62,29.94,29.81,13,3,13,0.01
2013-10-24,81.5,77.3,73.4,69.2,65.9,62.1,78,68,59,30.08,29.92,17,4,17,0.00
2013-10-25,83.5,77.1,70.6,67.2,64.1,61.4,83,65,50,30.13,30.05,20,4,20,0.00
2013-10-26,83.8,77.6,69.6,65.4,63.3,61.8,82,62,51,30.14,30.04,14,4,14,0.00
2013-10-27,71.5,70.7,69.7,63.0,62.4,61.9,77,75,73,30.06,30.04,3,1,3,0.00
2013-10-28,84.2,78.6,74.2,66.9,64.3,60.2,70,62,46,30.13,30.04,6,3,13,0.00
2013-10-29,85.0,77.9,68.3,70.2,66.9,64.2,90,70,60,30.16,30.08,8,4,21,0.00
2013-10-30,84.3,79.7,76.4,68.7,66.9,65.1,73,65,57,30.17,30.07,8,6,20,0.00
2013-10-31,85.1,80.2,76.3,72.9,70.2,65.9,86,72,62,30.10,29.98,6,4,16,0.07
2013-11-1,88.3,80.0,76.1,74.8,72.5,71.0,87,78,60,30.00,29.88,4,1,14,0.00
2013-11-2,90.1,79.6,71.6,73.7,70.2,63.5,97,75,43,29.93,29.80,13,2,13,0.00
2013-11-3,83.3,75.1,68.6,66.4,63.2,60.3,84,67,53,30.01,29.88,19,5,19,0.00
2013-11-4,83.4,77.7,75.3,68.9,63.9,55.2,73,63,42,30.06,29.99,22,7,23,0.00
2013-11-5,82.2,78.0,74.5,72.0,68.9,64.9,90,74,62,30.08,30.00,22,7,22,0.09
2013-11-6,84.8,79.1,73.3,71.5,69.9,68.7,86,74,61,30.05,29.98,15,5,21,0.00
2013-11-7,86.2,77.0,69.5,72.2,69.7,65.9,93,79,53,30.00,29.91,12,2,12,0.00
2013-11-8,84.5,76.5,71.1,73.4,70.8,67.9,95,83,60,30.02,29.93,20,4,20,0.36
2013-11-9,81.0,77.1,73.8,73.8,72.3,70.7,95,85,76,30.10,29.99,21,6,21,0.48
2013-11-10,84.3,79.2,76.8,72.5,70.5,67.8,85,75,65,30.10,30.03,14,5,19,0.00
2013-11-11,84.3,78.6,71.3,71.7,69.2,66.6,89,73,64,30.10,30.03,16,4,17,0.00
2013-11-12,78.6,76.2,74.6,69.7,68.4,67.1,82,77,69,30.04,30.00,9,3,9,0.00
2013-11-13,78.2,72.6,69.9,68.0,64.2,57.8,88,75,62,30.19,29.98,23,6,25,0.09
2013-11-14,77.5,72.9,70.0,61.6,58.6,55.1,68,61,55,30.23,30.13,24,7,24,0.00
2013-11-15,80.9,77.3,73.7,69.9,67.2,61.0,88,71,61,30.13,30.01,15,6,21,0.04
2013-11-16,80.5,78.3,73.0,72.5,69.0,60.3,89,73,56,30.09,30.00,16,4,16,0.04
2013-11-17,84.7,79.4,75.5,73.0,70.7,68.5,83,75,65,30.07,29.99,16,3,16,0.00
2013-11-18,85.0,77.7,71.4,73.0,70.7,69.2,93,80,63,30.02,29.91,11,1,11,0.00
2013-11-19,86.0,76.7,72.2,73.9,71.3,69.9,93,84,62,29.94,29.84,10,2,10,0.00
2013-11-20,82.3,76.2,70.2,75.6,72.0,69.0,97,87,74,30.05,29.91,13,1,13,0.35
2013-11-21,83.1,75.9,71.7,75.4,72.4,70.2,97,89,68,30.12,30.03,15,3,18,1.13
2013-11-22,82.5,77.5,72.5,72.8,71.3,69.8,96,81,71,30.14,30.05,18,5,18,0.69
2013-11-23,83.6,77.9,72.9,72.5,71.0,69.5,90,79,68,30.06,29.96,15,3,15,0.00
2013-11-24,82.8,74.2,68.1,71.4,67.8,64.1,95,81,59,30.13,29.97,21,4,21,0.23
2013-11-25,77.5,73.7,71.8,70.0,65.5,60.7,91,76,67,30.18,30.03,25,8,25,0.12
2013-11-26,83.3,77.4,72.1,75.6,73.0,69.3,93,86,77,30.03,29.82,21,4,21,0.14
2013-11-27,78.5,71.6,59.6,75.5,64.8,52.9,97,80,52,30.11,29.78,19,4,19,1.03
2013-11-28,74.3,62.4,48.3,61.6,53.3,45.2,89,73,56,30.23,30.10,19,5,19,0.00
2013-11-29,78.0,70.4,61.0,64.2,59.4,55.1,89,69,54,30.26,30.17,20,4,20,0.00
2013-11-30,76.8,70.5,61.6,70.1,63.6,59.5,94,79,66,30.19,30.09,18,4,18,0.22
2013-12-1,74.7,67.7,62.4,70.9,65.7,60.3,97,93,75,30.09,29.93,8,1,9,2.62
2013-12-2,76.5,67.7,61.4,67.3,63.5,58.2,98,87,55,29.93,29.82,14,3,14,0.00
2013-12-3,79.0,70.0,60.4,66.4,63.4,59.2,97,81,56,30.00,29.89,8,1,8,0.00
2013-12-4,82.2,72.6,64.8,69.6,66.1,63.6,96,81,62,30.09,29.98,9,0,11,0.01
2013-12-5,82.8,76.0,67.0,72.3,69.4,64.9,94,80,70,30.16,30.07,14,2,14,0.00
2013-12-6,82.7,77.7,74.3,71.1,69.5,67.3,84,76,65,30.17,30.08,11,2,16,0.00
2013-12-7,82.8,76.5,67.8,71.3,68.9,65.6,93,78,65,30.20,30.12,18,2,18,0.36
2013-12-8,82.6,77.2,71.3,71.5,69.6,66.5,94,78,65,30.20,30.11,13,4,18,0.01
2013-12-9,82.7,78.3,76.0,71.3,69.1,66.2,83,74,61,30.19,30.10,19,3,19,0.00
2013-12-10,84.8,78.1,73.0,73.1,71.3,69.2,94,80,67,30.15,30.07,12,1,12,0.00
2013-12-11,83.5,76.1,70.1,74.4,71.2,68.9,97,85,68,30.19,30.10,13,2,13,0.00
2013-12-12,81.4,72.8,67.9,72.3,66.8,59.8,96,82,67,30.21,30.12,11,3,19,0.01
2013-12-13,78.2,73.5,70.2,69.7,64.4,59.2,89,73,65,30.18,30.08,19,6,19,0.14
2013-12-14,81.9,77.3,74.0,73.0,71.0,68.4,88,81,71,30.10,29.98,13,3,19,0.02
2013-12-15,84.3,77.2,71.5,75.4,72.0,68.6,95,85,68,30.05,29.92,15,2,15,0.00
2013-12-16,73.5,68.6,62.7,68.6,61.5,58.9,91,78,66,30.15,30.02,13,3,13,0.00
2013-12-17,78.3,67.7,59.8,65.3,60.0,57.7,94,78,58,30.17,30.08,14,2,14,0.00
2013-12-18,77.7,67.0,59.9,60.1,57.9,55.2,93,74,52,30.22,30.13,15,3,15,0.00
2013-12-19,78.0,69.8,57.5,63.2,59.4,55.5,94,71,53,30.23,30.14,14,3,18,0.00
2013-12-20,81.5,76.9,72.5,70.3,67.7,63.0,79,73,64,30.17,30.09,13,5,18,0.00
2013-12-21,82.5,78.0,75.7,73.2,71.6,69.7,87,81,71,30.14,30.05,21,4,21,0.00
2013-12-22,83.0,78.8,76.5,73.5,72.2,70.6,87,81,71,30.15,30.07,16,3,16,0.00
2013-12-23,83.8,78.0,71.4,74.0,72.0,68.8,93,82,68,30.17,30.11,8,1,14,0.00
2013-12-24,85.2,72.7,67.4,72.6,67.5,62.1,98,85,58,30.17,30.06,16,3,16,0.00
2013-12-25,77.5,73.9,71.4,67.4,66.0,64.2,82,76,70,30.16,30.08,15,6,19,0.00
2013-12-26,79.7,75.9,73.9,71.1,69.2,67.1,83,80,73,30.15,30.05,14,4,15,0.00
2013-12-27,80.8,76.4,73.5,71.8,69.9,68.0,88,80,72,30.18,30.07,16,4,16,0.00
2013-12-28,81.7,77.3,75.2,72.6,70.7,68.1,88,80,73,30.16,30.01,23,6,23,0.00
2013-12-29,81.7,77.7,74.3,74.6,73.1,71.8,95,86,77,30.03,29.92,12,1,12,0.00
2013-12-30,82.2,74.1,69.2,73.0,70.0,65.7,97,87,68,30.13,29.97,10,2,10,0.00
2013-12-31,79.3,73.1,67.7,69.1,65.0,62.6,91,76,63,30.21,30.09,19,4,19,0.00
2014-1-1,81.8,76.5,73.6,74.2,70.8,64.3,90,83,70,30.18,30.03,16,4,16,0.08
2014-1-2,86.8,77.1,70.7,72.0,69.4,65.7,93,78,53,30.03,29.86,13,1,13,0.00